Time;durP1;ratioP1;P1;durP2;ratioP2;P2;SDS_P1;SDS_P2;PMS_P1;PMS_P2;Temp;Humidity;BMP_temperature;BMP_pressure;BME280_temperature;BME280_humidity;BME280_pressure;Samples;Min_cycle;Max_cycle;Signal;HPM_P1;HPM_P2
2023/02/07 00:00:17;;;;;;;0.20;0.10;;;10.50;99.90;;;;;;21245621;27;20393;-67
2023/02/07 00:10:23;;;;;;;0.20;0.10;;;10.30;99.90;;;;;;21244670;27;20891;-67
2023/02/07 00:20:27;;;;;;;0.20;0.10;;;10.30;99.90;;;;;;21243078;27;20737;-67
2023/02/07 00:30:32;;;;;;;0.20;0.10;;;10.30;99.90;;;;;;21243581;27;20485;-67
2023/02/07 00:40:36;;;;;;;0.20;0.10;;;10.10;99.90;;;;;;21240283;27;20875;-67
2023/02/07 00:50:42;;;;;;;0.20;0.10;;;10.10;99.90;;;;;;21237293;27;20409;-67
2023/02/07 01:00:46;;;;;;;0.20;0.10;;;9.90;99.90;;;;;;21240625;27;20457;-68
2023/02/07 01:10:51;;;;;;;0.20;0.10;;;9.80;99.90;;;;;;21240408;27;20409;-66
2023/02/07 01:20:55;;;;;;;0.20;0.10;;;9.70;99.90;;;;;;21238383;27;20381;-66
2023/02/07 01:31:00;;;;;;;0.20;0.10;;;9.60;99.90;;;;;;21238479;27;20412;-66
2023/02/07 01:41:05;;;;;;;0.20;0.10;;;9.50;99.90;;;;;;21236757;27;20494;-67
2023/02/07 01:51:10;;;;;;;0.20;0.10;;;9.30;99.90;;;;;;21235227;27;20844;-66
2023/02/07 02:01:19;;;;;;;0.20;0.10;;;9.30;99.90;;;;;;21217524;27;20869;-66
2023/02/07 02:11:47;;;;;;;0.20;0.10;;;9.20;99.90;;;;;;21234296;27;20419;-67
2023/02/07 02:22:26;;;;;;;0.20;0.10;;;9.10;99.90;;;;;;21233945;27;20884;-68
2023/02/07 02:33:14;;;;;;;0.20;0.10;;;9.10;99.90;;;;;;21221595;27;20753;-67
2023/02/07 02:43:29;;;;;;;0.20;0.10;;;9.10;99.90;;;;;;21146763;27;20393;-68
2023/02/07 02:53:33;;;;;;;0.20;0.10;;;9.00;99.90;;;;;;21230781;27;20393;-68
2023/02/07 03:03:59;;;;;;;0.20;0.10;;;9.00;99.90;;;;;;21230556;27;20397;-67
2023/02/07 03:14:13;;;;;;;0.20;0.10;;;8.90;99.90;;;;;;21229695;27;20423;-67
2023/02/07 03:24:22;;;;;;;0.20;0.10;;;8.90;99.90;;;;;;21230248;27;20426;-67
2023/02/07 03:34:32;;;;;;;0.20;0.10;;;8.90;99.90;;;;;;21227740;28;20427;-68
2023/02/07 03:44:42;;;;;;;0.20;0.10;;;8.90;99.90;;;;;;21227329;28;20401;-67
2023/02/07 03:54:45;;;;;;;0.20;0.10;;;8.90;99.90;;;;;;21228386;27;21123;-67
2023/02/07 04:04:51;;;;;;;0.20;0.10;;;9.00;99.90;;;;;;21161604;27;20433;-67
2023/02/07 04:14:54;;;;;;;0.20;0.10;;;9.00;99.90;;;;;;21142688;28;20405;-65
2023/02/07 04:25:00;;;;;;;0.20;0.10;;;9.00;99.90;;;;;;21143502;28;20406;-66
2023/02/07 04:35:04;;;;;;;0.20;0.10;;;9.00;99.90;;;;;;21184519;27;20788;-68
2023/02/07 04:45:10;;;;;;;0.20;0.10;;;9.10;99.90;;;;;;21240567;27;20401;-66
2023/02/07 04:55:14;;;;;;;0.20;0.10;;;9.10;99.90;;;;;;21211175;27;20399;-67
2023/02/07 05:05:19;;;;;;;0.20;0.10;;;9.10;99.90;;;;;;21154991;27;20414;-67
2023/02/07 05:15:23;;;;;;;0.20;0.10;;;9.20;99.90;;;;;;21154292;28;20387;-68
2023/02/07 05:25:28;;;;;;;0.20;0.10;;;9.30;99.90;;;;;;21153913;28;20765;-69
2023/02/07 05:35:33;;;;;;;0.20;0.10;;;9.20;99.90;;;;;;21134606;28;20390;-67
2023/02/07 05:45:39;;;;;;;0.20;0.10;;;9.10;99.90;;;;;;21149785;28;20480;-67
2023/02/07 05:55:43;;;;;;;0.20;0.03;;;9.20;99.90;;;;;;21202405;27;20921;-67
2023/02/07 06:05:48;;;;;;;0.20;0.10;;;9.30;99.90;;;;;;21235139;27;20956;-68
2023/02/07 06:15:52;;;;;;;0.20;0.10;;;9.30;99.90;;;;;;21215994;27;20401;-68
2023/02/07 06:25:57;;;;;;;0.30;0.30;;;9.30;99.90;;;;;;21232134;27;20411;-68
2023/02/07 06:36:01;;;;;;;0.20;0.10;;;9.30;99.90;;;;;;21231869;27;20404;-68
2023/02/07 06:46:07;;;;;;;0.20;0.10;;;9.30;99.90;;;;;;21230818;27;20404;-67
2023/02/07 06:56:11;;;;;;;0.20;0.10;;;9.10;99.90;;;;;;21225813;27;20400;-68
2023/02/07 07:06:16;;;;;;;0.20;0.10;;;9.30;99.90;;;;;;21206259;27;20401;-68
2023/02/07 07:16:20;;;;;;;0.20;0.10;;;9.20;99.90;;;;;;21228932;27;20496;-72
2023/02/07 07:26:25;;;;;;;0.20;0.10;;;9.30;99.90;;;;;;21228718;28;20393;-68
2023/02/07 07:36:42;;;;;;;0.20;0.10;;;9.40;99.90;;;;;;21227812;28;20392;-69
2023/02/07 07:46:47;;;;;;;0.20;0.10;;;9.50;99.90;;;;;;21224769;28;20413;-68
2023/02/07 07:56:51;;;;;;;0.20;0.10;;;9.60;99.90;;;;;;21223742;28;20835;-67
2023/02/07 08:06:59;;;;;;;0.20;0.10;;;9.70;99.90;;;;;;21233965;27;20481;-67
2023/02/07 08:17:02;;;;;;;0.20;0.10;;;9.80;99.90;;;;;;21231072;27;20451;-68
2023/02/07 08:27:08;;;;;;;0.20;0.10;;;9.90;99.90;;;;;;21229473;27;20458;-68
2023/02/07 08:37:12;;;;;;;0.20;0.10;;;10.00;99.90;;;;;;21237676;27;20447;-67
2023/02/07 08:47:18;;;;;;;0.20;0.10;;;10.00;99.90;;;;;;21237814;27;20421;-69
2023/02/07 08:57:24;;;;;;;0.20;0.10;;;10.00;99.90;;;;;;21235722;27;20497;-71
2023/02/07 09:07:30;;;;;;;0.20;0.00;;;10.30;99.90;;;;;;21236945;27;20412;-69
2023/02/07 09:17:34;;;;;;;0.20;0.10;;;10.30;99.90;;;;;;21235705;27;20466;-69
2023/02/07 09:27:39;;;;;;;0.20;0.10;;;10.50;99.90;;;;;;21235268;27;20495;-67
2023/02/07 09:37:43;;;;;;;0.20;0.03;;;10.60;99.90;;;;;;21227575;27;20401;-68
2023/02/07 09:48:00;;;;;;;0.20;0.10;;;10.10;99.90;;;;;;21147820;28;20407;-69
2023/02/07 09:58:09;;;;;;;0.20;0.10;;;10.00;99.90;;;;;;21218398;27;20401;-69
2023/02/07 10:08:17;;;;;;;0.20;0.10;;;9.60;99.90;;;;;;21230540;27;20766;-67
2023/02/07 10:18:33;;;;;;;0.20;0.10;;;9.40;99.90;;;;;;21229797;27;20516;-66
2023/02/07 10:29:03;;;;;;;0.20;0.10;;;9.50;99.90;;;;;;21230128;27;20733;-68
2023/02/07 10:39:15;;;;;;;0.20;0.10;;;9.40;99.90;;;;;;21229819;27;20489;-72
2023/02/07 10:49:23;;;;;;;0.20;0.10;;;9.30;99.90;;;;;;21227339;27;20443;-68
2023/02/07 10:59:35;;;;;;;0.20;0.10;;;9.00;99.90;;;;;;21228799;27;20422;-67
2023/02/07 11:09:40;;;;;;;0.20;0.10;;;9.10;99.90;;;;;;21227720;27;20400;-69
2023/02/07 11:19:45;;;;;;;0.20;0.10;;;9.00;99.90;;;;;;21226511;27;20465;-68
2023/02/07 11:29:55;;;;;;;0.20;0.10;;;9.20;99.90;;;;;;21196374;27;20451;-68
2023/02/07 11:40:25;;;;;;;0.20;0.10;;;9.30;99.90;;;;;;21148099;28;20395;-68
2023/02/07 11:50:35;;;;;;;0.20;0.10;;;9.50;99.90;;;;;;21224069;27;20416;-68
2023/02/07 12:00:39;;;;;;;0.20;0.00;;;9.40;99.90;;;;;;21241711;27;20449;-67
2023/02/07 12:10:48;;;;;;;0.20;0.10;;;9.10;99.90;;;;;;21242037;27;20405;-67
2023/02/07 12:20:57;;;;;;;0.20;0.10;;;9.20;99.90;;;;;;21240902;27;20405;-67
2023/02/07 12:31:14;;;;;;;0.20;0.10;;;9.20;99.90;;;;;;21181905;27;20414;-68
2023/02/07 12:41:25;;;;;;;0.20;0.10;;;9.20;99.90;;;;;;21153475;27;20886;-67
2023/02/07 12:51:38;;;;;;;0.20;0.10;;;9.30;99.90;;;;;;21238384;27;20412;-67
2023/02/07 13:01:49;;;;;;;0.20;0.10;;;9.30;99.90;;;;;;21220480;27;20393;-66
2023/02/07 13:12:00;;;;;;;0.20;0.10;;;9.60;99.90;;;;;;21237123;27;20761;-67
2023/02/07 13:22:10;;;;;;;0.20;0.10;;;9.10;99.90;;;;;;21236033;27;20744;-65
2023/02/07 13:32:20;;;;;;;0.20;0.10;;;9.40;99.90;;;;;;21182965;27;20479;-66
2023/02/07 13:42:32;;;;;;;0.20;0.10;;;10.20;99.90;;;;;;21152969;27;20508;-66
2023/02/07 13:52:43;;;;;;;0.20;0.10;;;10.10;99.90;;;;;;21233197;27;20428;-66
2023/02/07 14:02:50;;;;;;;0.20;0.10;;;10.20;99.90;;;;;;21232863;27;20401;-66
2023/02/07 14:12:58;;;;;;;0.20;0.10;;;10.20;99.90;;;;;;21230964;27;20411;-64
2023/02/07 14:23:12;;;;;;;0.20;0.10;;;10.00;99.90;;;;;;21229665;27;20401;-66
2023/02/07 14:33:32;;;;;;;0.20;0.10;;;9.80;99.90;;;;;;21203052;27;20408;-65
2023/02/07 14:43:44;;;;;;;0.20;0.10;;;9.80;99.90;;;;;;21192540;28;20392;-65
2023/02/07 14:53:58;;;;;;;0.20;0.10;;;10.00;99.90;;;;;;21128713;28;20822;-67
2023/02/07 15:04:03;;;;;;;0.20;0.10;;;10.10;99.90;;;;;;21128258;28;20509;-65
2023/02/07 15:14:21;;;;;;;0.20;0.00;;;10.00;99.90;;;;;;21127839;28;20406;-68
2023/02/07 15:24:28;;;;;;;0.20;0.10;;;9.80;99.90;;;;;;21126500;28;20415;-64
2023/02/07 15:34:45;;;;;;;0.20;0.10;;;9.70;99.90;;;;;;21054571;28;20385;-65
2023/02/07 15:44:50;;;;;;;0.20;0.10;;;9.70;99.90;;;;;;20984462;28;20421;-65
2023/02/07 15:54:56;;;;;;;0.20;0.10;;;9.80;99.90;;;;;;20986611;28;20776;-68
2023/02/07 16:05:08;;;;;;;0.20;0.10;;;9.60;99.90;;;;;;20968050;28;20402;-66
2023/02/07 16:15:26;;;;;;;0.20;0.08;;;9.60;99.90;;;;;;20984883;28;20734;-64
2023/02/07 16:25:32;;;;;;;0.20;0.10;;;9.60;99.90;;;;;;20983616;28;20402;-66
2023/02/07 16:35:37;;;;;;;0.20;0.10;;;10.10;99.90;;;;;;20991977;28;20418;-65
2023/02/07 16:45:41;;;;;;;0.20;0.10;;;10.10;99.90;;;;;;20997371;28;20409;-65
2023/02/07 16:55:46;;;;;;;0.20;0.10;;;10.20;99.90;;;;;;20980270;28;20413;-65
2023/02/07 17:05:50;;;;;;;0.20;0.10;;;10.50;99.90;;;;;;20984456;28;20416;-64
2023/02/07 17:15:56;;;;;;;0.20;0.10;;;10.80;99.90;;;;;;21045701;28;20861;-65
2023/02/07 17:26:00;;;;;;;0.20;0.10;;;10.90;99.90;;;;;;21062974;28;20462;-65
2023/02/07 17:36:07;;;;;;;0.20;0.10;;;11.20;99.90;;;;;;21060988;28;20743;-66
2023/02/07 17:46:15;;;;;;;0.20;0.10;;;11.30;99.90;;;;;;21093995;27;20400;-66
2023/02/07 17:56:23;;;;;;;0.20;0.10;;;11.30;99.90;;;;;;21061476;28;20851;-66
2023/02/07 18:06:30;;;;;;;0.20;0.10;;;11.20;99.90;;;;;;21059005;28;20461;-66
2023/02/07 18:16:35;;;;;;;0.20;0.10;;;11.10;99.90;;;;;;21058293;28;20752;-67
2023/02/07 18:26:39;;;;;;;0.20;0.10;;;10.80;99.90;;;;;;21058580;28;20473;-67
2023/02/07 18:36:44;;;;;;;0.20;0.10;;;10.60;99.90;;;;;;21056192;28;20774;-68
2023/02/07 18:46:48;;;;;;;0.20;0.10;;;10.70;99.90;;;;;;21055807;28;20420;-67
2023/02/07 18:56:54;;;;;;;0.20;0.00;;;11.00;99.90;;;;;;21055659;28;20397;-68
2023/02/07 19:06:58;;;;;;;0.20;0.10;;;11.20;99.90;;;;;;21058370;28;20415;-64
2023/02/07 19:17:03;;;;;;;0.20;0.10;;;10.70;99.90;;;;;;21065303;28;20473;-69
2023/02/07 19:27:07;;;;;;;0.20;0.10;;;10.40;99.90;;;;;;21070372;28;20496;-69
2023/02/07 19:37:12;;;;;;;0.20;0.10;;;10.40;99.90;;;;;;21070880;28;20886;-68
2023/02/07 19:47:17;;;;;;;0.20;0.10;;;10.40;99.90;;;;;;21070552;28;20412;-67
2023/02/07 19:57:22;;;;;;;0.20;0.10;;;10.30;99.90;;;;;;21067153;28;20407;-67
2023/02/07 20:07:26;;;;;;;0.20;0.10;;;10.30;99.90;;;;;;21065881;28;20442;-67
2023/02/07 20:17:31;;;;;;;0.20;0.10;;;10.20;99.90;;;;;;21064774;28;20401;-67
2023/02/07 20:27:35;;;;;;;0.20;0.10;;;9.90;99.90;;;;;;21064006;28;20426;-67
2023/02/07 20:37:40;;;;;;;0.20;0.10;;;9.80;99.90;;;;;;21061979;28;20403;-68
2023/02/07 20:47:45;;;;;;;0.20;0.10;;;10.00;99.90;;;;;;21096026;27;20439;-67
2023/02/07 20:57:50;;;;;;;0.20;0.10;;;10.00;99.90;;;;;;21063172;28;20933;-66
2023/02/07 21:07:54;;;;;;;0.20;0.10;;;9.80;99.90;;;;;;21061617;28;20503;-67
2023/02/07 21:17:59;;;;;;;0.20;0.10;;;9.70;99.90;;;;;;21060712;28;20457;-67
2023/02/07 21:28:03;;;;;;;0.20;0.10;;;9.60;99.90;;;;;;21058696;28;20899;-67
2023/02/07 21:38:08;;;;;;;0.20;0.10;;;9.40;99.90;;;;;;21057831;28;20879;-67
2023/02/07 21:48:12;;;;;;;0.20;0.10;;;9.30;99.90;;;;;;21057957;28;20906;-68
2023/02/07 21:58:18;;;;;;;0.20;0.10;;;9.50;99.90;;;;;;21058056;28;20418;-68
2023/02/07 22:08:26;;;;;;;0.20;0.10;;;9.40;99.90;;;;;;21039334;28;20415;-68
2023/02/07 22:18:31;;;;;;;0.20;0.10;;;9.50;99.90;;;;;;21060580;28;20898;-66
2023/02/07 22:28:37;;;;;;;0.20;0.10;;;9.30;99.90;;;;;;21060893;28;20400;-67
2023/02/07 22:38:42;;;;;;;0.20;0.10;;;9.30;99.90;;;;;;21054979;28;20408;-66
2023/02/07 22:48:47;;;;;;;0.20;0.10;;;9.10;99.90;;;;;;21065630;28;20705;-65
2023/02/07 22:58:53;;;;;;;0.20;0.10;;;9.10;99.90;;;;;;21076559;28;20764;-66
2023/02/07 23:08:57;;;;;;;0.20;0.10;;;9.00;99.90;;;;;;21075552;28;20937;-65
2023/02/07 23:19:06;;;;;;;0.20;0.00;;;8.90;99.90;;;;;;21074607;28;20396;-65
2023/02/07 23:29:09;;;;;;;0.20;0.10;;;8.80;99.90;;;;;;21074157;28;20446;-64
2023/02/07 23:39:15;;;;;;;0.20;0.10;;;9.00;99.90;;;;;;21074529;28;20519;-64
2023/02/07 23:49:19;;;;;;;0.20;0.10;;;9.10;99.90;;;;;;21073454;28;20400;-65
2023/02/07 23:59:24;;;;;;;0.20;0.10;;;9.10;99.90;;;;;;21072740;28;20423;-65
